createdAt,value
2019-04-24T00:59:56.610Z,15.70
2019-04-24T01:02:55.573Z,15.60
2019-04-24T01:10:17.061Z,15.60
2019-04-24T01:12:44.795Z,15.60
2019-04-24T01:20:27.233Z,15.50
2019-04-24T01:22:53.969Z,15.50
2019-04-24T01:30:38.113Z,15.40
2019-04-24T01:32:59.907Z,15.40
2019-04-24T01:35:30.770Z,15.40
2019-04-24T01:40:27.185Z,15.30
2019-04-24T01:42:47.996Z,15.30
2019-04-24T01:45:21.352Z,15.30
2019-04-24T01:50:18.217Z,15.30
2019-04-24T01:52:48.815Z,15.40
2019-04-24T01:55:18.343Z,15.40
2019-04-24T01:57:54.494Z,15.50
2019-04-24T02:00:29.039Z,15.60
2019-04-24T02:02:50.638Z,15.60
2019-04-24T02:10:42.903Z,15.70
2019-04-24T02:15:28.541Z,15.80
2019-04-24T02:17:59.096Z,15.90
2019-04-24T02:25:34.602Z,15.90
2019-04-24T02:38:17.122Z,16.10
2019-04-24T02:43:22.222Z,16.10
2019-04-24T02:45:37.245Z,16.20
2019-04-24T02:53:03.844Z,16.20
2019-04-24T02:55:50.263Z,16.30
2019-04-24T02:58:13.292Z,16.30
2019-04-24T03:03:17.384Z,16.30
2019-04-24T03:05:49.040Z,16.40
2019-04-24T03:08:31.013Z,16.40
2019-04-24T03:33:42.610Z,16.50
2019-04-24T03:48:39.370Z,16.50
2019-04-24T03:58:37.806Z,16.60
2019-04-24T04:03:24.550Z,16.50
2019-04-24T04:06:14.702Z,16.50
2019-04-24T04:10:55.542Z,16.60
2019-04-24T04:13:37.046Z,16.50
2019-04-24T04:15:52.614Z,16.60
2019-04-24T04:18:42.004Z,16.50
2019-04-24T04:20:59.786Z,16.50
2019-04-24T04:28:37.328Z,16.50
2019-04-24T04:36:06.757Z,16.50
2019-04-24T04:38:41.246Z,16.50
2019-04-24T04:43:49.038Z,16.50
2019-04-24T04:48:47.181Z,16.50
2019-04-24T04:58:42.259Z,16.50
2019-04-24T05:01:30.478Z,16.50
2019-04-24T05:03:48.675Z,16.50
2019-04-24T05:11:22.657Z,16.50
2019-04-24T05:13:53.846Z,16.50
2019-04-24T05:18:58.343Z,16.60
2019-04-24T05:21:22.227Z,16.60
2019-04-24T05:23:53.372Z,16.70
2019-04-24T05:31:07.593Z,17.10
2019-04-24T05:36:01.262Z,17.50
2019-04-24T05:41:01.364Z,18.10
2019-04-24T05:46:16.708Z,19.30
2019-04-24T05:51:14.733Z,19.10
2019-04-24T05:53:49.805Z,19.00
2019-04-24T05:56:36.521Z,19.00
2019-04-24T05:58:41.829Z,18.70
2019-04-24T06:01:17.223Z,18.50
2019-04-24T06:06:39.070Z,18.30
2019-04-24T06:08:43.258Z,18.30
2019-04-24T06:13:47.133Z,18.30
2019-04-24T06:16:35.430Z,18.30
2019-04-24T06:18:56.107Z,18.30
2019-04-24T06:21:31.541Z,18.30
2019-04-24T06:26:37.591Z,18.60
2019-04-24T06:36:38.989Z,19.40
2019-04-24T06:39:14.734Z,19.50
2019-04-24T06:41:36.981Z,19.60
2019-04-24T06:46:42.486Z,19.90
2019-04-24T06:51:28.405Z,20.40
2019-04-24T06:53:44.135Z,20.60
2019-04-24T06:59:08.530Z,20.40
2019-04-24T07:04:10.032Z,20.20
2019-04-24T07:09:18.281Z,20.10
2019-04-24T07:16:54.856Z,19.80
2019-04-24T07:18:48.446Z,19.70
2019-04-24T07:24:00.698Z,19.60
2019-04-24T07:26:29.089Z,19.50
2019-04-24T07:29:00.784Z,19.30
2019-04-24T07:34:21.611Z,19.20
2019-04-24T07:39:00.299Z,18.90
2019-04-24T07:41:53.845Z,18.80
2019-04-24T07:49:15.795Z,18.70
2019-04-24T08:01:43.726Z,20.50
2019-04-24T08:06:48.074Z,20.70
2019-04-24T08:09:26.822Z,20.80
2019-04-24T08:11:46.482Z,20.70
2019-04-24T08:14:08.869Z,20.60
2019-04-24T08:16:41.381Z,20.70
2019-04-24T08:19:17.743Z,20.90
2019-04-24T08:21:37.865Z,21.20
2019-04-24T08:24:21.438Z,21.40
2019-04-24T08:26:48.990Z,21.60
2019-04-24T08:29:07.878Z,21.70
2019-04-24T08:31:50.313Z,21.70
2019-04-24T08:42:10.765Z,22.40
2019-04-24T08:44:26.811Z,22.40
2019-04-24T08:46:52.507Z,22.40
2019-04-24T08:49:36.460Z,22.40
2019-04-24T08:54:10.746Z,22.60
2019-04-24T08:56:51.585Z,22.50
2019-04-24T08:59:44.563Z,22.70
2019-04-24T09:01:57.671Z,22.70
2019-04-24T09:04:32.764Z,22.50
2019-04-24T09:06:56.871Z,22.30
2019-04-24T09:14:47.651Z,22.10
2019-04-24T09:17:32.106Z,22.10
2019-04-24T09:23:03.877Z,22.50
2019-04-24T09:37:48.019Z,22.80
2019-04-24T09:48:00.971Z,23.00
2019-04-24T09:55:49.832Z,23.20
2019-04-24T09:58:31.881Z,23.30
2019-04-24T10:01:20.502Z,23.40
2019-04-24T10:08:29.535Z,23.70
2019-04-24T10:10:58.470Z,23.70
2019-04-24T10:13:33.065Z,23.80
2019-04-24T10:15:52.198Z,23.80
2019-04-24T10:18:43.527Z,24.00
2019-04-24T10:20:56.297Z,24.10
2019-04-24T10:23:40.568Z,24.20
2019-04-24T10:26:01.436Z,24.50
2019-04-24T10:28:57.981Z,24.60
2019-04-24T10:31:05.183Z,24.70
2019-04-24T10:33:39.956Z,24.80
2019-04-24T10:36:23.768Z,24.90
2019-04-24T10:38:54.684Z,25.10
2019-04-24T10:41:32.609Z,25.20
2019-04-24T10:43:52.330Z,25.30
2019-04-24T10:46:25.346Z,25.40
2019-04-24T10:48:52.244Z,25.50
2019-04-24T10:51:37.132Z,25.50
2019-04-24T11:01:48.767Z,25.40
2019-04-24T11:04:00.950Z,25.40
2019-04-24T11:06:34.712Z,25.40
2019-04-24T11:11:39.925Z,25.40
2019-04-24T11:14:06.854Z,25.50
2019-04-24T11:19:10.804Z,25.50
2019-04-24T11:21:51.407Z,25.60
2019-04-24T11:24:05.159Z,25.60
2019-04-24T11:26:36.825Z,25.70
2019-04-24T11:31:35.425Z,25.90
2019-04-24T11:36:34.340Z,25.90
2019-04-24T11:39:15.968Z,25.90
2019-04-24T11:41:47.912Z,25.80
2019-04-24T11:44:12.291Z,25.90
2019-04-24T11:47:09.870Z,25.90
2019-04-24T11:49:38.745Z,26.00
2019-04-24T11:54:13.174Z,26.10
2019-04-24T11:57:07.618Z,26.20
2019-04-24T11:58:49.120Z,26.20
2019-04-24T12:02:01.862Z,26.30
2019-04-24T12:04:24.568Z,26.20
2019-04-24T12:06:51.040Z,26.30
2019-04-24T12:09:09.343Z,26.20
2019-04-24T12:14:27.012Z,26.40
2019-04-24T12:16:49.732Z,26.50
2019-04-24T12:19:26.111Z,26.60
2019-04-24T12:21:58.398Z,26.70
2019-04-24T12:26:51.400Z,26.70
2019-04-24T12:29:19.073Z,26.80
2019-04-24T12:31:59.900Z,26.80
2019-04-24T12:34:36.242Z,26.80
2019-04-24T12:37:11.082Z,26.90
2019-04-24T12:39:37.232Z,26.90
2019-04-24T12:42:14.433Z,26.90
2019-04-24T12:49:43.153Z,27.10
2019-04-24T12:54:51.330Z,27.10
2019-04-24T12:57:10.518Z,27.20
2019-04-24T13:02:05.572Z,27.30
2019-04-24T13:04:39.021Z,27.50
2019-04-24T13:07:06.923Z,27.60
2019-04-24T13:09:39.734Z,27.70
2019-04-24T13:12:19.220Z,27.80
2019-04-24T13:14:49.792Z,27.80
2019-04-24T13:17:31.350Z,27.80
2019-04-24T13:19:30.843Z,27.90
2019-04-24T13:22:09.162Z,27.90
2019-04-24T13:24:55.102Z,28.00
2019-04-24T13:27:45.872Z,28.10
2019-04-24T13:30:10.869Z,28.10
2019-04-24T13:32:47.626Z,28.00
2019-04-24T13:35:13.516Z,27.90
2019-04-24T13:37:55.725Z,27.80
2019-04-24T13:40:03.266Z,27.70
2019-04-24T13:47:57.693Z,27.40
2019-04-24T13:55:29.568Z,26.90
2019-04-24T13:58:01.975Z,26.90
2019-04-24T14:03:17.210Z,26.70
2019-04-24T14:05:25.574Z,26.90
2019-04-24T14:08:07.283Z,26.90
2019-04-24T14:11:06.257Z,27.00
2019-04-24T14:13:00.213Z,27.00
2019-04-24T14:15:42.907Z,27.00
2019-04-24T14:18:13.509Z,27.20
2019-04-24T14:20:29.661Z,27.40
2019-04-24T14:23:08.976Z,27.50
2019-04-24T14:25:34.709Z,27.50
2019-04-24T14:30:43.352Z,27.60
2019-04-24T14:33:13.436Z,27.70
2019-04-24T14:35:50.199Z,27.70
2019-04-24T14:38:09.283Z,27.70
2019-04-24T14:40:40.706Z,27.70
2019-04-24T14:43:21.561Z,27.90
2019-04-24T14:45:45.247Z,28.10
2019-04-24T14:48:07.886Z,28.00
2019-04-24T14:53:09.539Z,28.20
2019-04-24T14:58:10.336Z,28.00
2019-04-24T15:03:09.734Z,27.80
2019-04-24T15:08:17.087Z,27.80
2019-04-24T15:10:45.054Z,27.90
2019-04-24T15:16:12.137Z,27.90
2019-04-24T15:20:52.572Z,28.10
2019-04-24T15:25:57.381Z,28.20
2019-04-24T15:30:50.581Z,28.40
2019-04-24T15:35:54.651Z,28.50
2019-04-24T15:38:18.855Z,28.30
2019-04-24T15:40:57.398Z,28.20
2019-04-24T15:43:24.980Z,28.10
2019-04-24T15:48:35.010Z,28.00
2019-04-24T15:52:57.697Z,27.70
2019-04-24T15:55:27.318Z,27.60
2019-04-24T15:57:57.958Z,27.40
2019-04-24T16:01:05.620Z,27.30
2019-04-24T16:03:31.535Z,27.20
2019-04-24T16:05:27.688Z,27.00
2019-04-24T16:07:56.509Z,26.90
2019-04-24T16:10:25.429Z,26.70
2019-04-24T16:12:54.380Z,26.60
2019-04-24T16:16:00.862Z,26.50
2019-04-24T16:21:10.378Z,26.30
2019-04-24T16:23:44.700Z,26.20
2019-04-24T16:26:07.773Z,26.00
2019-04-24T16:30:57.916Z,25.80
2019-04-24T16:36:03.868Z,25.60
2019-04-24T16:38:27.001Z,25.60
2019-04-24T16:41:04.163Z,25.50
2019-04-24T16:48:34.245Z,25.40
2019-04-24T16:51:06.073Z,25.30
2019-04-24T16:53:27.811Z,25.20
2019-04-24T16:55:50.092Z,25.10
2019-04-24T16:58:32.469Z,25.00
2019-04-24T17:06:11.341Z,24.50
2019-04-24T17:08:45.443Z,24.40
2019-04-24T17:11:10.417Z,24.20
2019-04-24T17:16:06.818Z,23.70
2019-04-24T17:19:02.956Z,23.50
2019-04-24T17:21:31.721Z,23.40
2019-04-24T17:23:42.376Z,23.30
2019-04-24T17:26:15.878Z,22.80
2019-04-24T17:28:58.594Z,22.30
2019-04-24T17:31:10.862Z,21.80
2019-04-24T17:33:47.444Z,21.20
2019-04-24T17:38:11.951Z,19.60
2019-04-24T17:40:40.961Z,19.10
2019-04-24T17:43:30.949Z,18.30
2019-04-24T17:46:05.005Z,17.90
2019-04-24T17:48:39.494Z,17.30
2019-04-24T17:51:20.257Z,16.90
2019-04-24T17:53:38.057Z,16.60
2019-04-24T17:56:13.265Z,16.40
2019-04-24T18:00:43.710Z,16.10
2019-04-24T18:05:42.292Z,15.80
2019-04-24T18:08:12.130Z,15.50
2019-04-24T18:10:41.769Z,15.40
2019-04-24T18:13:11.362Z,15.20
2019-04-24T18:15:42.357Z,15.00
2019-04-24T18:18:11.245Z,14.80
2019-04-24T18:20:40.544Z,14.70
2019-04-24T18:23:11.060Z,14.60
2019-04-24T18:25:41.423Z,14.50
2019-04-24T18:28:11.945Z,14.50
2019-04-24T18:30:40.698Z,14.50
2019-04-24T18:33:09.707Z,14.50
2019-04-24T18:35:39.299Z,14.50
2019-04-24T18:38:10.724Z,14.50
2019-04-24T18:40:38.676Z,14.50
2019-04-24T18:43:08.132Z,14.60
2019-04-24T18:45:37.129Z,14.60
2019-04-24T18:48:06.498Z,14.50
2019-04-24T18:50:35.794Z,14.50
2019-04-24T18:53:04.851Z,14.50
2019-04-24T18:55:34.255Z,14.40
2019-04-24T18:58:03.590Z,14.40
2019-04-24T19:00:32.699Z,14.30
2019-04-24T19:03:01.490Z,14.30
2019-04-24T19:05:31.658Z,14.20
2019-04-24T19:08:01.404Z,14.20
2019-04-24T19:10:32.067Z,14.20
2019-04-24T19:13:01.053Z,14.10
2019-04-24T19:15:29.969Z,14.10
2019-04-24T19:17:58.756Z,14.00
2019-04-24T19:20:27.839Z,13.90
2019-04-24T19:23:05.042Z,13.80
2019-04-24T19:25:27.309Z,13.80
2019-04-24T19:27:56.169Z,13.70
2019-04-24T19:30:25.105Z,13.60
2019-04-24T19:32:54.008Z,13.60
2019-04-24T19:35:24.799Z,13.50
2019-04-24T19:37:53.716Z,13.40
2019-04-24T19:40:36.783Z,13.40
2019-04-24T19:42:53.211Z,13.30
2019-04-24T19:45:24.971Z,13.20
2019-04-24T19:47:53.267Z,13.20
2019-04-24T19:50:25.131Z,13.20
2019-04-24T19:52:54.118Z,13.10
2019-04-24T19:55:23.233Z,13.10
2019-04-24T19:57:52.560Z,13.00
2019-04-24T20:00:22.472Z,13.00
2019-04-24T20:02:51.681Z,12.90
2019-04-24T20:05:21.116Z,12.90
2019-04-24T20:07:51.098Z,12.80
2019-04-24T20:10:21.145Z,12.80
2019-04-24T20:12:50.493Z,12.80
2019-04-24T20:15:19.403Z,12.70
2019-04-24T20:17:48.307Z,12.80
2019-04-24T20:20:17.204Z,12.70
2019-04-24T20:22:46.025Z,12.60
2019-04-24T20:25:15.359Z,12.60
2019-04-24T20:27:44.497Z,12.60
2019-04-24T20:30:14.261Z,12.50
2019-04-24T20:32:43.353Z,12.40
2019-04-24T20:35:12.219Z,12.40
2019-04-24T20:37:41.339Z,12.40
2019-04-24T20:40:11.863Z,12.30
2019-04-24T20:42:40.829Z,12.30
2019-04-24T20:45:11.479Z,12.10
2019-04-24T20:47:41.312Z,12.10
2019-04-24T20:50:13.220Z,12.10
2019-04-24T20:52:42.082Z,12.00
2019-04-24T20:55:10.940Z,12.00
2019-04-24T20:57:39.868Z,11.80
2019-04-24T21:00:08.729Z,11.70
2019-04-24T21:02:37.580Z,11.60
2019-04-24T21:05:06.364Z,11.40
2019-04-24T21:07:35.270Z,11.40
2019-04-24T21:10:05.999Z,11.30
2019-04-24T21:12:34.866Z,11.20
2019-04-24T21:15:05.045Z,11.10
2019-04-24T21:17:39.331Z,11.10
2019-04-24T21:20:12.213Z,11.10
2019-04-24T21:22:53.250Z,11.10
2019-04-24T21:25:26.463Z,11.10
2019-04-24T21:27:59.409Z,11.00
2019-04-24T21:30:28.721Z,11.10
2019-04-24T21:33:01.729Z,11.20
2019-04-24T21:35:30.883Z,11.30
2019-04-24T21:38:01.234Z,11.40
2019-04-24T21:40:30.578Z,11.40
2019-04-24T21:43:01.582Z,11.50
2019-04-24T21:45:30.510Z,11.50
2019-04-24T21:47:59.329Z,11.50
2019-04-24T21:50:28.420Z,11.50
2019-04-24T21:52:57.203Z,11.50
2019-04-24T21:55:26.708Z,11.50
2019-04-24T21:57:55.649Z,11.60
2019-04-24T22:00:27.446Z,11.60
2019-04-24T22:02:56.396Z,11.50
2019-04-24T22:05:25.529Z,11.50
2019-04-24T22:07:54.423Z,11.50
2019-04-24T22:10:24.246Z,11.50
2019-04-24T22:12:53.975Z,11.50
2019-04-24T22:15:22.862Z,11.50
2019-04-24T22:17:52.542Z,11.40
2019-04-24T22:20:21.973Z,11.40
2019-04-24T22:22:56.291Z,11.40
2019-04-24T22:25:21.238Z,11.40
2019-04-24T22:27:50.023Z,11.40
2019-04-24T22:30:18.887Z,11.40
2019-04-24T22:32:47.664Z,11.50
2019-04-24T22:35:16.573Z,11.40
2019-04-24T22:37:45.361Z,11.50
2019-04-24T22:40:16.879Z,11.50
2019-04-24T22:42:44.865Z,11.40
2019-04-24T22:45:13.938Z,11.40
2019-04-24T22:47:44.073Z,11.40
2019-04-24T22:50:13.104Z,11.40
2019-04-24T22:52:41.991Z,11.30
2019-04-24T22:55:15.680Z,11.20
2019-04-24T22:57:44.867Z,11.10
2019-04-24T23:00:16.242Z,11.00
2019-04-24T23:02:45.198Z,10.90
2019-04-24T23:05:14.319Z,10.70
2019-04-24T23:07:43.253Z,10.60
2019-04-24T23:10:12.208Z,10.60
2019-04-24T23:12:41.865Z,10.50
2019-04-24T23:15:10.772Z,10.50
2019-04-24T23:17:40.310Z,10.40
2019-04-24T23:20:09.568Z,10.40
2019-04-24T23:22:38.877Z,10.30
2019-04-24T23:25:07.827Z,10.30
2019-04-24T23:27:36.691Z,10.30
2019-04-24T23:30:07.052Z,10.20
2019-04-24T23:32:35.846Z,10.20
2019-04-24T23:35:05.584Z,10.10
2019-04-24T23:37:34.537Z,10.10
2019-04-24T23:40:05.491Z,10.00
2019-04-24T23:42:34.791Z,10.00
2019-04-24T23:45:04.907Z,10.00
2019-04-24T23:47:34.728Z,9.90
2019-04-24T23:50:05.322Z,9.90
2019-04-24T23:52:34.125Z,9.80
2019-04-24T23:55:07.168Z,9.80
2019-04-24T23:57:34.099Z,9.80
